Time;durP1;ratioP1;P1;durP2;ratioP2;P2;SDS_P1;SDS_P2;PMS_P1;PMS_P2;Temp;Humidity;BMP_temperature;BMP_pressure;BME280_temperature;BME280_humidity;BME280_pressure;Samples;Min_cycle;Max_cycle;Signal;HPM_P1;HPM_P2
2023/10/09 00:01:28;;;;;;;11.97;4.30;;;;;;;15.54;79.57;155353.63;4986364;28;20457;-82
2023/10/09 00:03:55;;;;;;;10.20;4.67;;;;;;;15.59;79.82;155365.34;4987295;28;20437;-82
2023/10/09 00:06:30;;;;;;;14.80;4.13;;;;;;;15.57;80.50;155361.44;4972771;28;20452;-82
2023/10/09 00:08:58;;;;;;;11.60;4.03;;;;;;;15.57;80.10;155361.44;4963552;28;20448;-81
2023/10/09 00:11:29;;;;;;;9.90;4.10;;;;;;;15.55;80.26;155356.25;4985764;28;20456;-81
2023/10/09 00:13:58;;;;;;;13.13;4.20;;;;;;;15.56;80.96;155358.84;4986581;28;20563;-81
2023/10/09 00:16:34;;;;;;;14.37;4.40;;;;;;;15.50;80.20;155343.25;4964720;28;20490;-81
2023/10/09 00:19:13;;;;;;;12.07;3.87;;;;;;;15.49;80.61;155340.63;4983378;28;20441;-81
2023/10/09 00:21:41;;;;;;;10.17;3.53;;;;;;;15.43;79.05;155325.00;4970639;28;20457;-81
2023/10/09 00:24:13;;;;;;;11.60;4.13;;;;;;;15.43;79.49;155323.72;4990137;28;20461;-81
2023/10/09 00:26:45;;;;;;;13.40;3.73;;;;;;;15.40;79.70;155317.22;4983892;28;20543;-82
2023/10/09 00:29:15;;;;;;;12.63;4.50;;;;;;;15.38;80.11;155310.72;4976151;28;20449;-81
2023/10/09 00:31:49;;;;;;;10.10;3.27;;;;;;;15.35;79.40;155304.22;4990567;28;20493;-81
2023/10/09 00:34:19;;;;;;;11.00;3.50;;;;;;;15.34;79.74;155301.59;4990099;28;20564;-81
2023/10/09 00:36:50;;;;;;;13.97;4.30;;;;;;;15.32;79.65;155296.41;4967976;28;20842;-81
2023/10/09 00:39:30;;;;;;;12.73;3.77;;;;;;;15.30;80.35;155291.22;4990260;28;20448;-81
2023/10/09 00:41:58;;;;;;;8.70;4.20;;;;;;;15.31;80.52;155292.50;4997914;28;20460;-82
2023/10/09 00:44:37;;;;;;;13.57;4.27;;;;;;;15.31;80.12;155293.78;4974982;28;20429;-82
2023/10/09 00:47:10;;;;;;;14.53;4.27;;;;;;;15.28;80.20;155286.00;5000672;28;20456;-81
2023/10/09 00:49:42;;;;;;;9.37;4.27;;;;;;;15.25;80.18;155278.19;4973476;28;20448;-82
2023/10/09 00:52:17;;;;;;;15.10;4.43;;;;;;;15.20;79.52;155266.50;4976081;28;21039;-82
2023/10/09 00:54:50;;;;;;;11.37;4.10;;;;;;;15.19;79.42;155263.94;5004548;28;21064;-82
2023/10/09 00:57:18;;;;;;;17.53;5.03;;;;;;;15.16;78.59;155254.81;4983590;28;20452;-82
2023/10/09 00:59:48;;;;;;;12.50;4.87;;;;;;;15.19;79.24;155262.63;4994708;28;20789;-81
2023/10/09 01:02:19;;;;;;;14.10;4.60;;;;;;;15.20;78.61;155265.19;4957363;28;20446;-81
2023/10/09 01:04:47;;;;;;;14.37;4.03;;;;;;;15.19;78.01;155262.63;4989703;28;20445;-82
2023/10/09 01:07:16;;;;;;;12.60;4.37;;;;;;;15.19;77.62;155262.63;4991518;28;20453;-82
2023/10/09 01:09:44;;;;;;;10.43;3.80;;;;;;;15.18;77.86;155261.31;4971033;28;20457;-82
2023/10/09 01:12:16;;;;;;;8.97;3.57;;;;;;;15.18;77.96;155261.31;4979549;28;20485;-82
2023/10/09 01:14:43;;;;;;;11.87;3.97;;;;;;;15.21;78.92;155267.81;4968032;28;20485;-82
2023/10/09 01:17:11;;;;;;;13.70;4.80;;;;;;;15.21;79.72;155269.13;4986610;28;20496;-82
2023/10/09 01:19:38;;;;;;;11.70;3.70;;;;;;;15.22;79.30;155270.44;4971760;28;20991;-82
2023/10/09 01:22:12;;;;;;;13.30;4.93;;;;;;;15.20;79.07;155266.50;4989180;28;20468;-82
2023/10/09 01:24:40;;;;;;;17.53;4.13;;;;;;;15.18;79.32;155261.31;4956575;28;20441;-82
2023/10/09 01:27:14;;;;;;;12.77;5.10;;;;;;;15.21;79.96;155267.81;4973270;28;20472;-82
2023/10/09 01:29:42;;;;;;;7.90;3.67;;;;;;;15.23;78.89;155274.31;4972444;28;20432;-82
2023/10/09 01:32:16;;;;;;;12.90;4.53;;;;;;;15.27;78.76;155282.13;4973445;28;20454;-82
2023/10/09 01:34:44;;;;;;;13.23;4.20;;;;;;;15.29;79.03;155287.31;4987556;28;20468;-82
2023/10/09 01:37:18;;;;;;;12.57;3.83;;;;;;;15.30;79.08;155289.91;4990802;28;20458;-83
2023/10/09 01:39:48;;;;;;;10.23;4.70;;;;;;;15.31;79.01;155292.50;4969057;28;20443;-83
2023/10/09 01:42:23;;;;;;;12.83;3.60;;;;;;;15.33;79.28;155298.97;4997140;28;20473;-83
2023/10/09 01:44:53;;;;;;;10.73;4.53;;;;;;;15.36;78.88;155305.47;4984242;28;20436;-83
2023/10/09 01:47:21;;;;;;;15.20;4.30;;;;;;;15.38;79.50;155311.97;5012247;28;20802;-83
2023/10/09 01:49:49;;;;;;;8.73;4.40;;;;;;;15.41;80.61;155319.78;4971850;28;20453;-83
2023/10/09 01:52:16;;;;;;;8.40;3.90;;;;;;;15.42;80.05;155321.09;4971268;28;20994;-83
2023/10/09 01:54:47;;;;;;;12.80;4.73;;;;;;;15.43;78.95;155325.00;4986877;28;20520;-83
2023/10/09 01:57:21;;;;;;;13.00;4.60;;;;;;;15.44;77.90;155327.59;4985945;28;20493;-83
2023/10/09 01:59:49;;;;;;;10.93;4.00;;;;;;;15.46;78.16;155331.56;4993480;28;20449;-83
2023/10/09 02:02:25;;;;;;;8.57;3.43;;;;;;;15.47;78.38;155335.44;4980278;28;20953;-83
2023/10/09 02:04:54;;;;;;;9.43;3.37;;;;;;;15.51;78.57;155344.56;4972208;28;20445;-83
2023/10/09 02:07:27;;;;;;;11.57;4.70;;;;;;;15.47;76.75;155335.44;4967926;28;20457;-82
2023/10/09 02:09:54;;;;;;;9.77;3.70;;;;;;;15.50;77.92;155341.94;4986447;28;20446;-82
2023/10/09 02:12:23;;;;;;;11.83;4.37;;;;;;;15.50;76.99;155343.25;4963110;28;20466;-83
2023/10/09 02:14:53;;;;;;;6.47;3.47;;;;;;;15.51;77.69;155345.88;4957572;28;20643;-83
2023/10/09 02:17:24;;;;;;;16.23;4.50;;;;;;;15.51;78.52;155345.88;4990209;28;20456;-82
2023/10/09 02:19:52;;;;;;;7.87;3.40;;;;;;;15.53;78.27;155349.75;4972326;28;20802;-82
2023/10/09 02:22:19;;;;;;;11.07;3.70;;;;;;;15.51;77.95;155345.88;4988247;28;20461;-83
2023/10/09 02:24:57;;;;;;;10.03;3.90;;;;;;;15.52;78.38;155347.13;4972314;28;20449;-84
2023/10/09 02:27:45;;;;;;;10.53;3.40;;;;;;;15.50;78.78;155341.94;4971947;28;20438;-83
2023/10/09 02:30:26;;;;;;;11.47;4.13;;;;;;;15.48;77.81;155338.06;4985658;28;20448;-83
2023/10/09 02:32:58;;;;;;;11.73;4.13;;;;;;;15.49;78.44;155340.63;4983085;28;20450;-83
2023/10/09 02:35:31;;;;;;;10.30;4.00;;;;;;;15.50;78.61;155343.25;4984678;28;20472;-83
2023/10/09 02:37:58;;;;;;;11.93;5.27;;;;;;;15.49;77.72;155340.63;4971322;28;20450;-83
2023/10/09 02:40:32;;;;;;;15.00;4.77;;;;;;;15.48;78.60;155338.06;4986881;28;20488;-83
2023/10/09 02:43:00;;;;;;;9.27;3.90;;;;;;;15.46;78.44;155331.56;4971867;28;20460;-82
2023/10/09 02:45:32;;;;;;;17.63;4.10;;;;;;;15.47;78.10;155335.44;4989019;28;20445;-83
2023/10/09 02:48:00;;;;;;;6.53;3.60;;;;;;;15.47;78.11;155335.44;4967507;28;20453;-83
2023/10/09 02:50:28;;;;;;;6.63;3.33;;;;;;;15.46;77.70;155332.81;4953477;28;20446;-83
2023/10/09 02:53:00;;;;;;;12.27;4.20;;;;;;;15.46;78.15;155332.81;4958643;28;20560;-82
2023/10/09 02:55:27;;;;;;;9.20;4.30;;;;;;;15.45;78.05;155330.19;4961927;28;20477;-82
2023/10/09 02:58:07;;;;;;;8.97;3.40;;;;;;;15.45;78.19;155328.91;4980876;28;20458;-82
2023/10/09 03:00:36;;;;;;;11.30;4.20;;;;;;;15.44;78.06;155327.59;4966386;28;20465;-82
2023/10/09 03:03:06;;;;;;;10.20;3.83;;;;;;;15.45;78.44;155330.19;4974453;28;20455;-82
2023/10/09 03:05:33;;;;;;;12.30;5.50;;;;;;;15.46;78.68;155331.56;4971675;28;20988;-82
2023/10/09 03:08:00;;;;;;;8.00;3.37;;;;;;;15.43;78.11;155325.00;4969194;28;20789;-82
2023/10/09 03:10:27;;;;;;;11.73;3.87;;;;;;;15.43;77.98;155325.00;4982531;28;20443;-82
2023/10/09 03:12:54;;;;;;;10.73;4.03;;;;;;;15.42;77.30;155322.41;4971341;28;20532;-82
2023/10/09 03:15:21;;;;;;;11.17;4.20;;;;;;;15.43;77.83;155325.00;4970969;28;20492;-83
2023/10/09 03:17:49;;;;;;;11.00;5.17;;;;;;;15.42;77.23;155322.41;4970212;28;20458;-82
2023/10/09 03:20:17;;;;;;;13.50;4.10;;;;;;;15.40;77.31;155317.22;4970398;28;20452;-82
2023/10/09 03:22:45;;;;;;;11.53;4.23;;;;;;;15.42;77.81;155322.41;4970885;28;20441;-82
2023/10/09 03:25:13;;;;;;;14.87;4.07;;;;;;;15.41;78.25;155319.78;4971548;28;20460;-82
2023/10/09 03:27:44;;;;;;;9.97;4.80;;;;;;;15.42;77.92;155322.41;4965374;28;20453;-83
2023/10/09 03:30:16;;;;;;;13.23;4.10;;;;;;;15.42;77.13;155322.41;4986938;28;20465;-82
2023/10/09 03:32:44;;;;;;;11.43;4.60;;;;;;;15.42;77.79;155321.09;4971239;28;20468;-83
2023/10/09 03:35:16;;;;;;;8.57;4.00;;;;;;;15.42;77.61;155322.41;4988586;28;20801;-83
2023/10/09 03:37:43;;;;;;;12.60;4.20;;;;;;;15.42;78.58;155321.09;4971220;28;20452;-83
2023/10/09 03:40:17;;;;;;;9.43;3.77;;;;;;;15.41;77.64;155318.53;4988369;28;20444;-83
2023/10/09 03:42:45;;;;;;;9.20;4.27;;;;;;;15.38;78.08;155310.72;4987098;28;20866;-83
2023/10/09 03:45:19;;;;;;;6.83;3.43;;;;;;;15.35;77.58;155304.22;4955136;28;20449;-83
2023/10/09 03:47:56;;;;;;;13.83;4.97;;;;;;;15.34;76.95;155301.59;4988093;28;21062;-83
2023/10/09 03:50:35;;;;;;;8.73;3.70;;;;;;;15.35;78.34;155302.91;4986064;28;20457;-83
2023/10/09 03:53:03;;;;;;;9.70;4.17;;;;;;;15.33;77.15;155298.97;4980259;28;21330;-83
2023/10/09 03:55:31;;;;;;;11.33;3.70;;;;;;;15.33;78.75;155297.72;4990652;28;20481;-83
2023/10/09 03:57:59;;;;;;;11.43;3.80;;;;;;;15.31;79.02;155293.78;5005853;28;20535;-83
2023/10/09 04:00:29;;;;;;;14.27;4.10;;;;;;;15.29;77.60;155288.63;4970535;28;20472;-83
2023/10/09 04:02:57;;;;;;;16.43;4.23;;;;;;;15.30;78.93;155291.22;4979694;28;20861;-83
2023/10/09 04:05:26;;;;;;;10.00;4.27;;;;;;;15.28;78.38;155286.00;4984009;28;20457;-83
2023/10/09 04:07:53;;;;;;;10.77;4.83;;;;;;;15.25;79.21;155279.50;4987270;28;20477;-83
2023/10/09 04:10:50;;;;;;;8.20;3.70;;;;;;;15.24;79.08;155275.63;4981960;28;20437;-83
2023/10/09 04:13:22;;;;;;;11.33;4.00;;;;;;;15.24;80.32;155275.63;4980153;28;20453;-82
2023/10/09 04:15:52;;;;;;;10.17;3.57;;;;;;;15.20;79.54;155265.19;4983271;28;20544;-82
2023/10/09 04:18:28;;;;;;;14.00;4.80;;;;;;;15.15;79.79;155253.53;4989126;28;20448;-83
2023/10/09 04:21:18;;;;;;;8.50;4.10;;;;;;;15.09;79.46;155236.66;4973486;28;20433;-83
2023/10/09 04:26:29;;;;;;;14.67;4.30;;;;;;;15.03;80.12;155221.03;4988879;28;20598;-83
2023/10/09 04:28:55;;;;;;;10.43;3.77;;;;;;;15.01;79.98;155217.13;4964124;28;20439;-83
2023/10/09 04:31:31;;;;;;;13.37;4.20;;;;;;;14.99;79.38;155210.63;4973174;28;20453;-82
2023/10/09 04:34:21;;;;;;;16.63;4.73;;;;;;;14.97;80.00;155206.75;4974588;28;20448;-83
2023/10/09 04:36:51;;;;;;;9.73;3.90;;;;;;;14.96;80.50;155204.13;4990282;28;20449;-82
2023/10/09 04:39:35;;;;;;;11.50;4.17;;;;;;;14.96;79.51;155202.81;4982121;28;20489;-83
2023/10/09 04:42:36;;;;;;;7.10;3.67;;;;;;;14.95;79.71;155201.56;4980917;28;20556;-82
2023/10/09 04:48:06;;;;;;;9.50;4.27;;;;;;;14.89;80.23;155184.66;4969491;28;20484;-83
2023/10/09 04:51:20;;;;;;;10.87;3.40;;;;;;;14.91;80.23;155191.16;4987916;28;20448;-83
2023/10/09 04:53:59;;;;;;;10.90;4.13;;;;;;;14.94;80.13;155198.94;4973862;28;20500;-83
2023/10/09 04:56:31;;;;;;;13.07;3.63;;;;;;;14.93;80.05;155195.06;4957527;28;20413;-83
2023/10/09 04:59:03;;;;;;;14.33;4.47;;;;;;;14.91;79.77;155189.84;4989032;28;20452;-83
2023/10/09 05:01:37;;;;;;;6.60;3.70;;;;;;;14.92;79.85;155192.47;4989935;28;21321;-83
2023/10/09 05:04:26;;;;;;;7.67;3.83;;;;;;;14.92;79.15;155192.47;4959099;28;20444;-83
2023/10/09 05:07:22;;;;;;;9.30;3.50;;;;;;;14.93;79.14;155195.06;4984388;28;20617;-83
2023/10/09 05:09:55;;;;;;;8.33;3.80;;;;;;;14.95;79.73;155200.25;4980098;28;20461;-83
2023/10/09 05:12:26;;;;;;;12.57;4.40;;;;;;;14.96;79.15;155204.13;4979923;28;21036;-83
2023/10/09 05:15:08;;;;;;;10.00;3.27;;;;;;;14.98;78.83;155208.06;4970021;28;20468;-84
2023/10/09 05:17:35;;;;;;;10.17;3.67;;;;;;;14.98;79.42;155209.38;4985891;28;20475;-83
2023/10/09 05:22:56;;;;;;;9.90;3.77;;;;;;;15.02;78.97;155218.44;4974570;28;20469;-83
2023/10/09 05:28:25;;;;;;;13.60;4.23;;;;;;;15.01;79.64;155217.13;4970706;28;20472;-83
2023/10/09 05:31:02;;;;;;;9.20;3.73;;;;;;;14.99;78.18;155210.63;4969692;28;20888;-83
2023/10/09 05:33:29;;;;;;;10.47;4.20;;;;;;;15.00;78.64;155214.56;4988335;28;20964;-83
2023/10/09 05:38:46;;;;;;;11.50;4.27;;;;;;;14.99;79.12;155210.63;4987058;28;20808;-83
2023/10/09 05:41:46;;;;;;;7.17;4.50;;;;;;;14.98;78.98;155209.38;4970256;28;20938;-83
2023/10/09 05:47:22;;;;;;;11.93;3.80;;;;;;;14.99;78.64;155210.63;4984380;28;20968;-82
2023/10/09 05:49:54;;;;;;;7.80;3.20;;;;;;;14.99;78.84;155210.63;4970844;28;20499;-83
2023/10/09 05:52:56;;;;;;;12.00;3.57;;;;;;;14.96;77.92;155204.13;4981677;28;20445;-83
2023/10/09 06:03:48;;;;;;;8.87;3.57;;;;;;;15.04;78.29;155223.63;4968908;28;20609;-83
2023/10/09 06:06:32;;;;;;;7.47;3.50;;;;;;;15.07;79.06;155231.41;4983502;28;20964;-83
2023/10/09 06:11:49;;;;;;;9.10;4.17;;;;;;;15.11;78.40;155241.84;4981467;28;21049;-82
2023/10/09 06:14:25;;;;;;;9.20;2.87;;;;;;;15.12;77.44;155244.41;4993837;28;20556;-83
2023/10/09 06:17:01;;;;;;;11.50;3.47;;;;;;;15.14;76.97;155249.66;4994781;28;20453;-83
2023/10/09 06:19:27;;;;;;;9.70;4.07;;;;;;;15.19;77.60;155262.63;4976473;28;20448;-82
2023/10/09 06:24:42;;;;;;;11.03;3.20;;;;;;;15.22;78.12;155271.69;4967664;28;20454;-81
2023/10/09 06:27:13;;;;;;;12.60;3.60;;;;;;;15.22;77.98;155270.44;4983070;28;20465;-81
2023/10/09 06:32:37;;;;;;;9.43;3.83;;;;;;;15.26;77.81;155280.81;4960806;28;20476;-82
2023/10/09 06:35:16;;;;;;;7.20;3.50;;;;;;;15.26;77.50;155280.81;4968308;28;20863;-83
2023/10/09 06:43:16;;;;;;;10.70;4.00;;;;;;;15.34;78.40;155301.59;4984258;28;20466;-84
2023/10/09 06:45:55;;;;;;;11.03;3.63;;;;;;;15.35;78.91;155304.22;4966339;28;20446;-83
2023/10/09 06:51:12;;;;;;;16.03;4.63;;;;;;;15.37;78.51;155309.41;4952076;28;20456;-82
2023/10/09 06:56:25;;;;;;;8.70;3.67;;;;;;;15.41;79.21;155319.78;4981750;28;20472;-82
2023/10/09 06:58:54;;;;;;;11.73;3.93;;;;;;;15.43;79.25;155325.00;4968534;28;20472;-82
2023/10/09 07:01:39;;;;;;;8.73;3.33;;;;;;;15.45;78.77;155330.19;4982934;28;20460;-82
2023/10/09 07:04:18;;;;;;;8.43;3.53;;;;;;;15.47;79.73;155334.13;4969350;28;20459;-82
2023/10/09 07:06:52;;;;;;;9.40;4.30;;;;;;;15.50;79.62;155343.25;4975731;28;20589;-82
2023/10/09 07:09:19;;;;;;;7.37;4.10;;;;;;;15.51;79.56;155345.88;4967868;28;20987;-83
2023/10/09 07:12:03;;;;;;;14.27;4.23;;;;;;;15.53;78.03;155351.06;4983719;28;20634;-82
2023/10/09 07:15:01;;;;;;;11.27;4.10;;;;;;;15.61;78.88;155371.84;4982765;28;20484;-82
2023/10/09 07:17:26;;;;;;;7.57;3.60;;;;;;;15.61;78.16;155371.84;4981969;28;20457;-82
2023/10/09 07:20:36;;;;;;;8.00;3.70;;;;;;;15.63;78.05;155377.03;4981961;28;21113;-82
2023/10/09 07:23:13;;;;;;;6.13;3.70;;;;;;;15.68;78.77;155390.03;4966734;28;20616;-83
2023/10/09 07:25:54;;;;;;;7.57;4.13;;;;;;;15.72;77.64;155400.47;4991687;28;20453;-82
2023/10/09 07:28:42;;;;;;;9.53;3.50;;;;;;;15.74;78.12;155404.34;4968049;28;20449;-83
2023/10/09 07:31:23;;;;;;;7.73;3.70;;;;;;;15.79;77.37;155417.34;4973848;28;20440;-83
2023/10/09 07:33:56;;;;;;;11.53;3.23;;;;;;;15.83;78.32;155429.03;4982321;28;20476;-82
2023/10/09 07:36:34;;;;;;;15.47;4.50;;;;;;;15.83;78.28;155429.03;4982239;28;20470;-82
2023/10/09 07:39:01;;;;;;;14.10;4.20;;;;;;;15.87;77.71;155438.13;4983860;28;21258;-82
2023/10/09 07:41:34;;;;;;;15.67;4.07;;;;;;;15.92;75.47;155449.81;4982723;28;20449;-82
2023/10/09 07:44:18;;;;;;;10.00;4.00;;;;;;;15.99;76.79;155469.31;4991655;28;21024;-81
2023/10/09 07:46:52;;;;;;;12.63;3.80;;;;;;;16.06;75.86;155486.25;4967097;28;20464;-83
2023/10/09 07:49:24;;;;;;;6.80;3.50;;;;;;;16.07;74.96;155490.13;4983197;28;20445;-83
2023/10/09 07:51:52;;;;;;;6.50;3.33;;;;;;;16.11;75.07;155500.56;4966966;28;20524;-83
2023/10/09 07:54:31;;;;;;;11.73;3.27;;;;;;;16.17;74.50;155514.88;4967178;28;20454;-81
2023/10/09 07:57:08;;;;;;;11.53;3.40;;;;;;;16.20;74.09;155523.94;4966269;28;20477;-83
2023/10/09 07:59:40;;;;;;;10.60;3.90;;;;;;;16.27;73.21;155542.16;4968359;28;20449;-84
2023/10/09 08:02:13;;;;;;;8.30;3.13;;;;;;;16.33;73.46;155557.78;4984592;28;20499;-83
2023/10/09 08:04:48;;;;;;;10.43;3.10;;;;;;;16.40;72.86;155575.97;4984582;28;20450;-83
2023/10/09 08:07:25;;;;;;;13.50;3.70;;;;;;;16.47;72.56;155591.59;4971585;28;20982;-83
2023/10/09 08:11:35;;;;;;;8.13;3.30;;;;;;;16.54;72.29;155609.84;4965924;28;20453;-83
2023/10/09 08:15:26;;;;;;;8.83;3.50;;;;;;;16.67;71.76;155644.97;4984065;28;21187;-82
2023/10/09 08:17:53;;;;;;;14.90;3.70;;;;;;;16.75;71.77;155665.78;4985167;28;20449;-82
2023/10/09 08:20:25;;;;;;;13.60;3.77;;;;;;;16.82;71.21;155684.00;4966100;28;20451;-82
2023/10/09 08:22:52;;;;;;;5.40;3.47;;;;;;;16.87;71.02;155697.00;4967004;28;20448;-82
2023/10/09 08:25:29;;;;;;;12.73;3.57;;;;;;;16.95;70.67;155716.50;4983052;28;20481;-82
2023/10/09 08:30:50;;;;;;;10.10;4.33;;;;;;;17.07;70.40;155746.44;4982195;28;20580;-82
2023/10/09 08:36:04;;;;;;;11.70;3.70;;;;;;;17.21;70.70;155782.91;4969340;28;20827;-82
2023/10/09 08:38:34;;;;;;;10.30;3.97;;;;;;;17.27;70.17;155798.47;4980823;28;20493;-82
2023/10/09 08:41:15;;;;;;;10.37;3.50;;;;;;;17.34;69.82;155816.72;4984256;28;20500;-82
2023/10/09 08:43:47;;;;;;;8.13;3.43;;;;;;;17.41;70.28;155834.94;4985355;28;20584;-83
2023/10/09 08:46:18;;;;;;;11.90;3.40;;;;;;;17.47;70.89;155850.56;4967913;28;20441;-82
2023/10/09 08:48:45;;;;;;;11.00;4.07;;;;;;;17.57;70.00;155876.66;4986813;28;20956;-83
2023/10/09 08:51:14;;;;;;;9.83;3.33;;;;;;;17.57;70.59;155876.66;4968719;28;20956;-83
2023/10/09 08:53:42;;;;;;;9.47;3.70;;;;;;;17.64;70.24;155894.84;4969870;28;20476;-83
2023/10/09 08:56:10;;;;;;;18.73;3.43;;;;;;;17.67;70.58;155902.69;4984181;28;20465;-83
2023/10/09 08:58:38;;;;;;;8.73;3.73;;;;;;;17.70;69.93;155909.19;4975376;28;20479;-82
2023/10/09 09:01:05;;;;;;;9.90;3.87;;;;;;;17.73;68.95;155918.31;4976954;28;20461;-84
2023/10/09 09:03:39;;;;;;;10.63;3.60;;;;;;;17.77;69.18;155928.69;4967648;28;20868;-83
2023/10/09 09:06:06;;;;;;;8.53;3.40;;;;;;;17.83;72.33;155943.03;4961110;28;20454;-83
2023/10/09 09:08:36;;;;;;;10.43;3.20;;;;;;;17.78;69.44;155931.31;4985006;28;20452;-83
2023/10/09 09:11:12;;;;;;;11.00;3.87;;;;;;;17.81;70.95;155937.84;4980773;28;20450;-83
2023/10/09 09:13:41;;;;;;;9.50;3.60;;;;;;;17.89;70.40;155958.66;4981988;28;20485;-83
2023/10/09 09:16:17;;;;;;;14.60;3.57;;;;;;;17.97;71.82;155979.50;4982896;28;20474;-83
2023/10/09 09:19:04;;;;;;;7.40;3.60;;;;;;;17.98;70.43;155983.38;5006973;23;20496;-81
2023/10/09 09:21:38;;;;;;;10.23;3.13;;;;;;;18.02;71.84;155993.81;5027644;28;20467;-81
2023/10/09 09:24:15;;;;;;;10.70;3.60;;;;;;;18.07;70.75;156006.84;5028021;28;20446;-81
2023/10/09 09:27:18;;;;;;;8.77;3.30;;;;;;;18.13;70.77;156021.19;5023589;28;21035;-82
2023/10/09 09:29:53;;;;;;;7.53;4.00;;;;;;;18.21;69.48;156043.28;4985576;28;20546;-81
2023/10/09 09:32:29;;;;;;;7.60;3.20;;;;;;;18.33;69.23;156071.94;5028388;28;20836;-81
2023/10/09 09:35:00;;;;;;;11.90;4.30;;;;;;;18.41;68.37;156092.78;5042300;28;20454;-80
2023/10/09 09:37:29;;;;;;;13.00;3.90;;;;;;;18.43;68.45;156097.97;5047189;28;20521;-80
2023/10/09 09:40:00;;;;;;;11.53;3.70;;;;;;;18.50;68.23;156117.59;5047980;28;20454;-79
2023/10/09 09:42:31;;;;;;;8.27;4.30;;;;;;;18.61;67.56;156144.97;5044431;28;20532;-80
2023/10/09 09:44:59;;;;;;;15.17;3.90;;;;;;;18.70;67.89;156168.38;5044786;28;20439;-79
2023/10/09 09:47:26;;;;;;;10.50;4.10;;;;;;;18.76;69.81;156185.34;5024618;28;20477;-80
2023/10/09 09:49:59;;;;;;;8.70;3.27;;;;;;;18.74;68.05;156178.84;5041300;28;20443;-79
2023/10/09 09:52:27;;;;;;;7.97;3.40;;;;;;;18.79;67.93;156191.84;5025695;28;20448;-80
2023/10/09 09:54:54;;;;;;;6.87;3.53;;;;;;;18.84;69.26;156204.88;5041272;28;20447;-80
2023/10/09 09:57:25;;;;;;;9.50;3.60;;;;;;;18.87;67.00;156212.72;5043270;28;20470;-79
2023/10/09 09:59:55;;;;;;;11.73;4.37;;;;;;;18.94;67.02;156230.94;5020925;28;20502;-80
2023/10/09 10:02:26;;;;;;;11.73;4.30;;;;;;;19.00;68.36;156245.28;5020100;28;20451;-79
2023/10/09 10:04:57;;;;;;;14.70;3.77;;;;;;;19.02;67.87;156250.47;5020894;28;20453;-79
2023/10/09 10:07:25;;;;;;;8.50;3.37;;;;;;;19.08;68.98;156266.13;5041315;28;20449;-80
2023/10/09 10:09:54;;;;;;;14.00;3.93;;;;;;;19.16;67.33;156288.28;5023167;28;20871;-79
2023/10/09 10:13:00;;;;;;;12.60;3.97;;;;;;;19.23;68.06;156306.53;5045188;28;20455;-80
2023/10/09 10:16:02;;;;;;;11.60;3.77;;;;;;;19.26;66.78;156314.34;5044063;28;20858;-80
2023/10/09 10:18:33;;;;;;;15.60;3.30;;;;;;;19.33;66.15;156332.56;5023133;28;20581;-80
2023/10/09 10:21:16;;;;;;;11.40;3.67;;;;;;;19.39;66.37;156348.28;5040243;28;20450;-80
2023/10/09 10:23:46;;;;;;;13.30;3.70;;;;;;;19.43;69.49;156358.69;5045264;28;20941;-80
2023/10/09 10:26:18;;;;;;;11.37;4.07;;;;;;;19.40;68.59;156350.91;5039801;28;20439;-80
2023/10/09 10:29:22;;;;;;;12.73;5.00;;;;;;;19.45;66.86;156362.63;5043121;28;20461;-80
2023/10/09 10:32:00;;;;;;;12.90;3.90;;;;;;;19.54;66.77;156384.78;5041689;28;20450;-80
2023/10/09 10:34:27;;;;;;;12.23;4.70;;;;;;;19.69;65.63;156423.88;5042594;28;20455;-80
2023/10/09 10:36:59;;;;;;;15.00;3.67;;;;;;;19.83;66.33;156460.41;5039516;28;20529;-80
2023/10/09 10:45:02;;;;;;;7.83;3.70;;;;;;;20.00;64.20;156504.72;5033906;28;20450;-80
2023/10/09 10:51:11;;;;;;;;;;;;;;;;;;;;;
2023/10/09 10:57:54;;;;;;;13.93;4.37;;;;;;;20.12;63.65;156536.00;4903609;29;20868;-82
2023/10/09 11:03:19;;;;;;;15.53;4.40;;;;;;;20.14;63.62;156541.25;4931877;28;20471;-82
2023/10/09 11:05:51;;;;;;;9.63;4.00;;;;;;;20.14;63.96;156541.25;4914671;29;20478;-82
2023/10/09 11:08:34;;;;;;;13.27;4.47;;;;;;;20.17;64.73;156549.06;4932754;28;21007;-82
2023/10/09 11:11:32;;;;;;;9.27;4.00;;;;;;;20.15;64.47;156543.81;4932175;28;20467;-82
2023/10/09 11:14:14;;;;;;;12.60;4.03;;;;;;;20.17;65.20;156549.06;4971609;23;20498;-80
2023/10/09 11:16:42;;;;;;;13.73;5.40;;;;;;;20.18;65.26;156551.66;5015575;28;20904;-80
2023/10/09 11:19:22;;;;;;;11.13;3.60;;;;;;;20.23;65.00;156564.69;5013750;28;20499;-80
2023/10/09 11:21:58;;;;;;;12.93;3.60;;;;;;;20.27;65.17;156575.19;5000483;28;20467;-80
2023/10/09 11:24:25;;;;;;;9.77;3.80;;;;;;;20.33;65.27;156589.56;5017333;28;20451;-80
2023/10/09 11:26:56;;;;;;;15.93;4.43;;;;;;;20.39;65.16;156606.47;5002278;28;20448;-82
2023/10/09 11:29:23;;;;;;;15.87;4.03;;;;;;;20.49;65.62;156631.28;5001481;28;20989;-81
2023/10/09 11:32:01;;;;;;;17.03;4.00;;;;;;;20.62;64.80;156666.47;5012072;28;20518;-80
2023/10/09 11:34:31;;;;;;;10.30;4.17;;;;;;;20.69;64.08;156682.16;5016202;28;20467;-81
2023/10/09 11:37:02;;;;;;;11.67;4.20;;;;;;;20.75;62.47;156697.81;4999631;28;20448;-81
2023/10/09 11:39:35;;;;;;;13.40;4.20;;;;;;;20.87;62.17;156729.09;5017677;28;20457;-81
2023/10/09 11:42:04;;;;;;;8.50;3.90;;;;;;;20.91;62.20;156739.56;4993701;28;20961;-80
2023/10/09 11:44:45;;;;;;;14.27;4.27;;;;;;;20.86;62.38;156726.53;5001937;28;20467;-80
2023/10/09 11:50:12;;;;;;;19.87;4.13;;;;;;;20.81;62.00;156714.75;5012797;28;20860;-80
2023/10/09 11:52:56;;;;;;;11.57;3.93;;;;;;;20.80;62.65;156710.84;4994091;28;20453;-80
2023/10/09 11:55:25;;;;;;;10.27;4.40;;;;;;;20.79;61.96;156709.53;5003644;28;20506;-81
2023/10/09 11:57:51;;;;;;;10.20;4.10;;;;;;;20.78;62.72;156705.66;5004947;28;20487;-81
2023/10/09 12:00:29;;;;;;;14.27;4.70;;;;;;;20.72;62.66;156689.97;4997191;28;20464;-81
2023/10/09 12:02:55;;;;;;;11.33;4.40;;;;;;;20.70;63.36;156684.78;5004572;28;20448;-81
2023/10/09 12:05:23;;;;;;;13.40;4.40;;;;;;;20.71;63.91;156688.66;4996385;28;20448;-81
2023/10/09 12:07:53;;;;;;;15.60;4.73;;;;;;;20.72;63.00;156689.97;5003236;28;20523;-80
2023/10/09 12:10:24;;;;;;;10.83;4.10;;;;;;;20.74;62.64;156696.50;4987486;28;20441;-81
2023/10/09 12:12:51;;;;;;;17.17;4.47;;;;;;;20.77;62.32;156703.03;4988816;28;20465;-81
2023/10/09 12:15:20;;;;;;;10.43;3.97;;;;;;;20.79;62.66;156709.53;4980235;28;20485;-81
2023/10/09 12:17:47;;;;;;;17.63;5.37;;;;;;;20.80;62.29;156710.84;5004196;28;20848;-81
2023/10/09 12:20:30;;;;;;;12.33;4.43;;;;;;;20.84;62.08;156721.28;4997639;28;21031;-81
2023/10/09 12:22:58;;;;;;;10.67;4.43;;;;;;;20.90;61.92;156736.94;5004776;28;20448;-81
2023/10/09 12:25:25;;;;;;;14.47;4.30;;;;;;;20.98;61.23;156757.81;4983331;28;20453;-81
2023/10/09 12:27:54;;;;;;;13.20;4.23;;;;;;;21.04;60.47;156774.81;4980610;28;20498;-81
2023/10/09 12:30:26;;;;;;;13.97;4.37;;;;;;;21.09;58.95;156786.59;5002063;28;20446;-81
2023/10/09 12:32:54;;;;;;;6.87;3.50;;;;;;;21.17;58.39;156808.78;4980042;28;21208;-82
2023/10/09 12:35:20;;;;;;;17.10;4.50;;;;;;;21.21;56.03;156817.91;4995793;28;20456;-82
2023/10/09 12:37:49;;;;;;;9.30;4.30;;;;;;;21.30;55.61;156841.41;4980594;28;20453;-81
2023/10/09 12:40:23;;;;;;;9.40;3.90;;;;;;;21.44;56.13;156876.66;4978383;28;20446;-81
2023/10/09 12:42:52;;;;;;;7.77;3.77;;;;;;;21.58;54.03;156914.47;4987351;28;20440;-81
2023/10/09 12:45:25;;;;;;;11.33;3.83;;;;;;;21.63;52.28;156927.53;4980383;28;20453;-81
2023/10/09 12:47:58;;;;;;;12.20;4.07;;;;;;;21.67;50.93;156936.69;4987984;28;20473;-81
2023/10/09 12:50:28;;;;;;;13.03;4.13;;;;;;;21.65;50.27;156932.78;4980426;28;20476;-81
2023/10/09 12:53:01;;;;;;;11.87;4.10;;;;;;;21.65;50.31;156931.47;5005067;28;20445;-82
2023/10/09 12:55:31;;;;;;;6.40;3.80;;;;;;;21.63;49.45;156926.28;4986751;28;20591;-81
2023/10/09 12:58:03;;;;;;;9.83;4.00;;;;;;;21.60;47.87;156919.75;5000220;28;21026;-81
2023/10/09 13:00:32;;;;;;;10.27;4.07;;;;;;;21.60;46.48;156919.75;4980636;28;20511;-81
2023/10/09 13:03:01;;;;;;;8.20;4.37;;;;;;;21.59;45.82;156917.13;5000083;28;20551;-81